createdAt,value
2022-10-20T00:02:26.672Z,101556.97
2022-10-20T00:04:54.024Z,101561.44
2022-10-20T00:07:22.632Z,101551.63
2022-10-20T00:09:49.763Z,101549.19
2022-10-20T00:12:16.966Z,101552.78
2022-10-20T00:14:44.202Z,101541.50
2022-10-20T00:17:11.383Z,101544.16
2022-10-20T00:19:38.655Z,101537.25
2022-10-20T00:22:05.844Z,101525.19
2022-10-20T00:24:32.998Z,101522.56
2022-10-20T00:27:00.110Z,101525.09
2022-10-20T00:29:27.897Z,101510.25
2022-10-20T00:31:55.163Z,101510.41
2022-10-20T00:34:22.447Z,101509.47
2022-10-20T00:36:51.319Z,101495.66
2022-10-20T00:39:18.942Z,101513.03
2022-10-20T00:41:46.201Z,101512.19
2022-10-20T00:44:57.660Z,101508.78
2022-10-20T00:48:02.462Z,101513.19
2022-10-20T00:50:40.246Z,101505.50
2022-10-20T00:53:08.120Z,101494.22
2022-10-20T00:55:42.240Z,101491.59
2022-10-20T00:58:09.886Z,101485.47
2022-10-20T01:00:41.884Z,101479.31
2022-10-20T01:03:20.807Z,101480.31
2022-10-20T01:05:50.730Z,101474.09
2022-10-20T01:08:20.134Z,101466.31
2022-10-20T01:11:40.307Z,101467.34
2022-10-20T01:14:26.091Z,101479.50
2022-10-20T01:17:29.432Z,101472.53
2022-10-20T01:20:29.460Z,101454.19
2022-10-20T01:23:38.740Z,101448.91
2022-10-20T01:26:47.562Z,101450.69
2022-10-20T01:29:43.931Z,101450.81
2022-10-20T01:33:01.092Z,101456.97
2022-10-20T01:35:57.132Z,101442.13
2022-10-20T01:38:54.442Z,101408.16
2022-10-20T01:41:34.540Z,101408.94
2022-10-20T01:44:12.387Z,101402.88
2022-10-20T01:46:43.334Z,101396.13
2022-10-20T01:49:13.860Z,101404.06
2022-10-20T01:54:26.599Z,101394.66
2022-10-20T01:57:08.601Z,101385.03
2022-10-20T02:00:03.148Z,101390.28
2022-10-20T02:02:55.715Z,101378.06
2022-10-20T02:06:11.296Z,101378.00
2022-10-20T02:08:49.731Z,101377.31
2022-10-20T02:12:00.858Z,101397.22
2022-10-20T02:14:29.605Z,101395.28
2022-10-20T02:17:06.839Z,101388.28
2022-10-20T02:19:41.564Z,101384.81
2022-10-20T02:22:13.636Z,101376.16
2022-10-20T02:24:44.454Z,101380.50
2022-10-20T02:27:34.143Z,101378.88
2022-10-20T02:30:10.365Z,101373.75
2022-10-20T02:32:41.909Z,101372.88
2022-10-20T02:35:19.620Z,101372.03
2022-10-20T02:37:46.822Z,101365.94
2022-10-20T02:40:14.686Z,101370.22
2022-10-20T02:42:43.325Z,101367.59
2022-10-20T02:45:11.162Z,101355.47
2022-10-20T02:47:38.800Z,101356.38
2022-10-20T02:50:09.128Z,101354.66
2022-10-20T02:52:36.742Z,101345.16
2022-10-20T02:55:06.479Z,101338.22
2022-10-20T02:57:33.946Z,101330.38
2022-10-20T03:00:01.310Z,101320.72
2022-10-20T03:02:28.472Z,101301.59
2022-10-20T03:04:55.654Z,101300.75
2022-10-20T03:07:22.921Z,101297.31
2022-10-20T03:09:50.185Z,101291.13
2022-10-20T03:12:17.505Z,101288.53
2022-10-20T03:14:45.407Z,101275.47
2022-10-20T03:17:12.611Z,101274.63
2022-10-20T03:19:41.347Z,101274.63
2022-10-20T03:22:08.634Z,101283.34
2022-10-20T03:24:35.826Z,101280.69
2022-10-20T03:27:03.131Z,101274.44
2022-10-20T03:29:30.426Z,101264.78
2022-10-20T03:31:57.698Z,101243.91
2022-10-20T03:34:25.143Z,101238.50
2022-10-20T03:36:52.426Z,101242.81
2022-10-20T03:39:19.850Z,101251.44
2022-10-20T03:41:47.082Z,101241.81
2022-10-20T03:44:14.304Z,101246.16
2022-10-20T03:46:41.483Z,101244.38
2022-10-20T03:49:08.657Z,101226.91
2022-10-20T03:51:35.843Z,101221.56
2022-10-20T03:54:03.132Z,101229.38
2022-10-20T03:56:30.270Z,101233.69
2022-10-20T03:58:57.554Z,101233.69
2022-10-20T04:01:34.883Z,101238.00
2022-10-20T04:04:02.104Z,101231.75
2022-10-20T04:06:29.381Z,101222.09
2022-10-20T04:08:56.581Z,101213.53
2022-10-20T04:11:24.338Z,101219.59
2022-10-20T04:13:51.656Z,101213.53
2022-10-20T04:16:18.910Z,101215.28
2022-10-20T04:18:46.247Z,101210.03
2022-10-20T04:21:13.519Z,101210.91
2022-10-20T04:23:40.782Z,101216.03
2022-10-20T04:26:11.933Z,101206.41
2022-10-20T04:28:39.518Z,101212.41
2022-10-20T04:31:07.987Z,101209.78
2022-10-20T04:33:36.332Z,101199.28
2022-10-20T04:36:12.203Z,101188.78
2022-10-20T04:38:39.354Z,101180.03
2022-10-20T04:41:06.590Z,101173.91
2022-10-20T04:43:34.819Z,101158.16
2022-10-20T04:46:08.464Z,101165.19
2022-10-20T04:48:37.765Z,101168.53
2022-10-20T04:51:10.116Z,101173.59
2022-10-20T04:53:38.135Z,101163.97
2022-10-20T04:56:08.189Z,101154.16
2022-10-20T04:58:36.136Z,101148.09
2022-10-20T05:01:08.162Z,101150.66
2022-10-20T05:03:37.299Z,101147.13
2022-10-20T05:06:17.324Z,101132.28
2022-10-20T05:08:48.412Z,101128.56
2022-10-20T05:11:18.739Z,101123.53
2022-10-20T05:13:47.525Z,101132.16
2022-10-20T05:16:17.559Z,101122.53
2022-10-20T05:18:46.233Z,101122.47
2022-10-20T05:21:23.951Z,101106.72
2022-10-20T05:24:04.518Z,101100.59
2022-10-20T05:26:37.086Z,101110.97
2022-10-20T05:29:07.772Z,101114.56
2022-10-20T05:31:52.930Z,101134.50
2022-10-20T05:34:20.143Z,101130.06
2022-10-20T05:36:47.344Z,101113.53
2022-10-20T05:39:14.510Z,101092.63
2022-10-20T05:41:41.718Z,101073.41
2022-10-20T05:44:12.362Z,101074.31
2022-10-20T05:46:41.478Z,101091.78
2022-10-20T05:49:16.626Z,101136.22
2022-10-20T05:51:46.434Z,101144.97
2022-10-20T05:54:16.416Z,101123.97
2022-10-20T05:56:44.040Z,101120.34
2022-10-20T05:59:12.773Z,101120.19
2022-10-20T06:01:49.508Z,101114.53
2022-10-20T06:04:25.671Z,101111.00
2022-10-20T06:06:53.155Z,101116.31
2022-10-20T06:09:22.861Z,101113.63
2022-10-20T06:11:52.223Z,101112.66
2022-10-20T06:14:22.433Z,101120.16
2022-10-20T06:16:54.434Z,101111.19
2022-10-20T06:19:23.849Z,101116.19
2022-10-20T06:21:52.604Z,101117.56
2022-10-20T06:24:20.639Z,101117.22
2022-10-20T06:26:51.535Z,101113.47
2022-10-20T06:29:20.740Z,101109.66
2022-10-20T06:31:51.842Z,101105.75
2022-10-20T06:34:23.990Z,101106.47
2022-10-20T06:36:53.455Z,101102.84
2022-10-20T06:39:24.143Z,101122.47
2022-10-20T06:41:54.875Z,101128.25
2022-10-20T06:44:24.565Z,101131.41
2022-10-20T06:46:52.561Z,101139.13
2022-10-20T06:49:20.929Z,101117.13
2022-10-20T06:51:48.671Z,101117.47
2022-10-20T06:54:16.449Z,101116.41
2022-10-20T06:56:43.670Z,101097.00
2022-10-20T06:59:10.892Z,101095.91
2022-10-20T07:01:39.819Z,101098.16
2022-10-20T07:04:14.919Z,101105.78
2022-10-20T07:06:46.121Z,101103.78
2022-10-20T07:09:18.988Z,101093.06
2022-10-20T07:11:51.026Z,101101.63
2022-10-20T07:14:18.241Z,101094.69
2022-10-20T07:16:45.358Z,101082.28
2022-10-20T07:19:12.564Z,101087.91
2022-10-20T07:21:41.765Z,101082.59
2022-10-20T07:24:13.109Z,101078.03
2022-10-20T07:26:41.860Z,101095.31
2022-10-20T07:29:11.810Z,101096.06
2022-10-20T07:31:47.841Z,101099.22
2022-10-20T07:34:25.616Z,101099.91
2022-10-20T07:36:56.397Z,101097.97
2022-10-20T07:39:24.793Z,101103.16
2022-10-20T07:41:52.123Z,101108.38
2022-10-20T07:44:19.699Z,101102.06
2022-10-20T07:46:46.915Z,101101.44
2022-10-20T07:52:01.394Z,101109.13
2022-10-20T07:54:28.676Z,101094.66
2022-10-20T07:56:55.863Z,101093.50
2022-10-20T07:59:24.363Z,101093.41
2022-10-20T08:01:54.769Z,101102.03
2022-10-20T08:04:26.018Z,101098.59
2022-10-20T08:06:53.188Z,101092.00
2022-10-20T08:09:20.357Z,101100.72
2022-10-20T08:11:52.828Z,101095.22
2022-10-20T08:14:23.312Z,101091.59
2022-10-20T08:16:53.501Z,101086.16
2022-10-20T08:19:26.937Z,101090.47
2022-10-20T08:21:54.236Z,101091.00
2022-10-20T08:24:22.196Z,101090.66
2022-10-20T08:26:49.923Z,101084.13
2022-10-20T08:29:17.231Z,101088.97
2022-10-20T08:31:45.300Z,101086.59
2022-10-20T08:34:12.458Z,101082.78
2022-10-20T08:36:39.857Z,101078.63
2022-10-20T08:39:07.025Z,101070.13
2022-10-20T08:42:06.393Z,101066.50
2022-10-20T08:44:36.691Z,101060.22
2022-10-20T08:47:20.122Z,101063.16
2022-10-20T08:49:47.522Z,101068.59
2022-10-20T08:52:24.415Z,101067.66
2022-10-20T08:54:57.087Z,101069.69
2022-10-20T08:57:34.565Z,101074.75
2022-10-20T09:00:23.819Z,101060.66
2022-10-20T09:02:51.955Z,101062.28
2022-10-20T09:05:28.158Z,101058.19
2022-10-20T09:07:55.561Z,101051.78
2022-10-20T09:10:45.807Z,101045.16
2022-10-20T09:13:29.991Z,101049.84
2022-10-20T09:16:40.578Z,101048.38
2022-10-20T09:19:28.443Z,101040.66
2022-10-20T09:22:03.992Z,101043.66
2022-10-20T09:24:32.191Z,101043.19
2022-10-20T09:27:37.386Z,101049.50
2022-10-20T09:30:31.364Z,101036.34
2022-10-20T09:32:59.527Z,101045.75
2022-10-20T09:35:37.307Z,101035.03
2022-10-20T09:38:11.709Z,101041.34
2022-10-20T09:40:58.147Z,101038.81
2022-10-20T09:43:27.595Z,101040.56
2022-10-20T09:46:06.720Z,101044.91
2022-10-20T09:48:47.835Z,101045.66
2022-10-20T09:51:36.768Z,101046.41
2022-10-20T09:54:20.127Z,101049.97
2022-10-20T09:56:49.508Z,101044.63
2022-10-20T09:59:32.874Z,101048.84
2022-10-20T10:02:16.377Z,101038.22
2022-10-20T10:04:49.066Z,101032.78
2022-10-20T10:07:22.382Z,101028.34
2022-10-20T10:10:25.167Z,101023.72
2022-10-20T10:12:56.991Z,101029.66
2022-10-20T10:15:34.848Z,101042.72
2022-10-20T10:18:22.942Z,101040.28
2022-10-20T10:21:05.689Z,101040.28
2022-10-20T10:23:57.936Z,101048.09
2022-10-20T10:26:47.306Z,101055.69
2022-10-20T10:29:32.732Z,101058.13
2022-10-20T10:32:14.044Z,101045.81
2022-10-20T10:35:30.222Z,101042.97
2022-10-20T10:38:00.354Z,101031.50
2022-10-20T10:41:03.563Z,101029.63
2022-10-20T10:44:10.827Z,101013.06
2022-10-20T10:47:09.107Z,101020.88
2022-10-20T10:50:02.169Z,101016.66
2022-10-20T10:53:05.855Z,101026.72
2022-10-20T10:56:18.602Z,101010.56
2022-10-20T10:59:06.557Z,101010.00
2022-10-20T11:01:43.377Z,101005.59
2022-10-20T11:04:53.250Z,100996.31
2022-10-20T11:07:52.583Z,101003.88
2022-10-20T11:10:48.973Z,101004.47
2022-10-20T11:13:44.765Z,101003.16
2022-10-20T11:17:30.471Z,101002.91
2022-10-20T11:20:27.945Z,100993.03
2022-10-20T11:23:46.590Z,101003.06
2022-10-20T11:26:32.674Z,100987.66
2022-10-20T11:29:04.232Z,100982.31
2022-10-20T11:32:12.262Z,100982.22
2022-10-20T11:35:07.492Z,100972.84
2022-10-20T11:38:12.658Z,100979.50
2022-10-20T11:40:47.315Z,100988.50
2022-10-20T11:43:32.338Z,100973.59
2022-10-20T11:46:13.259Z,100964.19
2022-10-20T11:48:57.371Z,100961.56
2022-10-20T11:51:30.232Z,100962.41
2022-10-20T11:54:13.098Z,100945.50
2022-10-20T11:57:17.176Z,100942.06
2022-10-20T12:00:18.029Z,100936.69
2022-10-20T12:03:07.733Z,100934.72
2022-10-20T12:05:52.692Z,100926.63
2022-10-20T12:09:32.393Z,100920.25
2022-10-20T12:12:37.566Z,100915.00
2022-10-20T12:15:27.810Z,100908.31
2022-10-20T12:18:15.055Z,100909.25
2022-10-20T12:20:53.560Z,100923.16
2022-10-20T12:23:57.558Z,100920.53
2022-10-20T12:26:30.894Z,100922.78
2022-10-20T12:29:22.189Z,100920.69
2022-10-20T12:32:45.627Z,100921.06
2022-10-20T12:35:12.709Z,100917.38
2022-10-20T12:37:42.399Z,100920.78
2022-10-20T12:40:11.960Z,100917.19
2022-10-20T12:42:57.738Z,100922.63
2022-10-20T12:45:41.296Z,100929.59
2022-10-20T12:48:22.492Z,100934.84
2022-10-20T12:50:52.693Z,100928.56
2022-10-20T12:53:30.887Z,100921.13
2022-10-20T12:56:12.794Z,100914.41
2022-10-20T12:59:27.690Z,100914.03
2022-10-20T13:02:18.013Z,100915.66
2022-10-20T13:05:08.610Z,100905.75
2022-10-20T13:07:48.002Z,100907.88
2022-10-20T13:10:27.416Z,100900.56
2022-10-20T13:13:20.321Z,100905.25
2022-10-20T13:15:54.567Z,100897.50
2022-10-20T13:18:35.206Z,100905.91
2022-10-20T13:21:33.945Z,100902.56
2022-10-20T13:24:16.081Z,100900.34
2022-10-20T13:26:43.227Z,100898.44
2022-10-20T13:29:53.039Z,100889.06
2022-10-20T13:33:18.168Z,100874.63
2022-10-20T13:36:29.325Z,100884.00
2022-10-20T13:39:36.158Z,100872.69
2022-10-20T13:43:08.160Z,100858.78
2022-10-20T13:45:53.560Z,100861.19
2022-10-20T13:48:53.317Z,100849.53
2022-10-20T13:51:32.308Z,100847.19
2022-10-20T13:54:06.852Z,100857.28
2022-10-20T13:56:47.539Z,100861.28
2022-10-20T13:59:14.620Z,100848.72
2022-10-20T14:01:54.296Z,100851.97
2022-10-20T14:04:36.240Z,100853.22
2022-10-20T14:07:13.305Z,100849.47
2022-10-20T14:09:45.457Z,100849.28
2022-10-20T14:12:26.343Z,100845.53
2022-10-20T14:15:01.944Z,100845.59
2022-10-20T14:17:30.054Z,100836.34
2022-10-20T14:20:22.598Z,100833.34
2022-10-20T14:22:53.626Z,100834.69
2022-10-20T14:25:22.846Z,100837.94
2022-10-20T14:27:53.418Z,100836.69
2022-10-20T14:30:21.945Z,100826.09
2022-10-20T14:32:51.317Z,100825.16
2022-10-20T14:35:39.617Z,100820.59
2022-10-20T14:38:31.973Z,100819.25
2022-10-20T14:41:00.185Z,100823.25
2022-10-20T14:43:52.030Z,100816.66
2022-10-20T14:46:41.516Z,100806.78
2022-10-20T14:49:22.514Z,100818.94
2022-10-20T14:52:25.632Z,100822.19
2022-10-20T14:54:53.114Z,100814.13
2022-10-20T14:57:20.108Z,100822.19
2022-10-20T15:00:06.057Z,100814.50
2022-10-20T15:02:42.891Z,100817.00
2022-10-20T15:05:34.009Z,100815.31
2022-10-20T15:08:24.544Z,100821.69
2022-10-20T15:10:52.633Z,100811.00
2022-10-20T15:13:33.806Z,100810.66
2022-10-20T15:16:03.142Z,100812.91
2022-10-20T15:18:31.166Z,100805.78
2022-10-20T15:20:58.491Z,100801.94
2022-10-20T15:23:29.867Z,100796.41
2022-10-20T15:26:14.437Z,100799.91
2022-10-20T15:28:50.304Z,100798.84
2022-10-20T15:31:29.107Z,100791.91
2022-10-20T15:33:58.451Z,100809.78
2022-10-20T15:36:33.765Z,100805.19
2022-10-20T15:39:01.208Z,100811.94
2022-10-20T15:41:33.418Z,100809.78
2022-10-20T15:44:22.528Z,100809.56
2022-10-20T15:46:55.574Z,100799.22
2022-10-20T15:49:23.863Z,100801.41
2022-10-20T15:51:54.161Z,100796.00
2022-10-20T15:54:22.830Z,100800.78
2022-10-20T15:56:50.193Z,100790.69
2022-10-20T15:59:20.127Z,100790.09
2022-10-20T16:01:47.343Z,100793.94
2022-10-20T16:04:26.116Z,100779.66
2022-10-20T16:06:58.948Z,100787.06
2022-10-20T16:09:27.663Z,100783.47
2022-10-20T16:11:55.062Z,100785.84
2022-10-20T16:14:22.261Z,100786.31
2022-10-20T16:16:49.454Z,100783.41
2022-10-20T16:19:16.643Z,100784.09
2022-10-20T16:21:43.819Z,100797.41
2022-10-20T16:24:11.478Z,100795.34
2022-10-20T16:26:38.679Z,100794.25
2022-10-20T16:29:05.931Z,100785.22
2022-10-20T16:31:33.174Z,100778.69
2022-10-20T16:34:00.514Z,100780.13
2022-10-20T16:36:27.806Z,100789.44
2022-10-20T16:38:57.489Z,100787.03
2022-10-20T16:41:25.227Z,100781.25
2022-10-20T16:43:53.708Z,100792.16
2022-10-20T16:46:23.019Z,100796.06
2022-10-20T16:48:50.297Z,100788.59
2022-10-20T16:51:18.255Z,100790.72
2022-10-20T16:53:45.794Z,100793.59
2022-10-20T16:56:16.643Z,100779.16
2022-10-20T16:58:47.300Z,100783.72
2022-10-20T17:01:19.940Z,100792.03
2022-10-20T17:03:51.875Z,100790.66
2022-10-20T17:06:25.524Z,100785.81
2022-10-20T17:08:54.351Z,100784.38
2022-10-20T17:11:26.851Z,100786.47
2022-10-20T17:13:55.277Z,100787.34
2022-10-20T17:16:28.887Z,100789.00
2022-10-20T17:18:58.799Z,100783.09
2022-10-20T17:21:28.133Z,100777.00
2022-10-20T17:23:55.767Z,100783.09
2022-10-20T17:26:27.795Z,100772.66
2022-10-20T17:28:58.270Z,100770.97
2022-10-20T17:31:25.621Z,100769.41
2022-10-20T17:33:54.801Z,100770.25
2022-10-20T17:36:26.104Z,100781.53
2022-10-20T17:39:08.406Z,100774.81
2022-10-20T17:41:36.330Z,100767.84
2022-10-20T17:44:07.692Z,100761.63
2022-10-20T17:46:35.268Z,100764.97
2022-10-20T17:49:02.732Z,100766.13
2022-10-20T17:51:33.665Z,100769.63
2022-10-20T17:54:03.771Z,100775.97
2022-10-20T17:56:37.551Z,100770.06
2022-10-20T17:59:07.913Z,100777.22
2022-10-20T18:01:40.899Z,100767.66
2022-10-20T18:04:15.443Z,100761.31
2022-10-20T18:06:45.428Z,100759.75
2022-10-20T18:09:18.688Z,100752.66
2022-10-20T18:11:51.180Z,100742.84
2022-10-20T18:14:19.095Z,100742.84
2022-10-20T18:16:50.215Z,100742.25
2022-10-20T18:19:19.792Z,100747.63
2022-10-20T18:21:47.786Z,100752.88
2022-10-20T18:24:18.371Z,100756.34
2022-10-20T18:26:46.794Z,100751.28
2022-10-20T18:29:16.592Z,100749.75
2022-10-20T18:31:46.886Z,100754.25
2022-10-20T18:34:20.515Z,100740.25
2022-10-20T18:36:49.283Z,100756.78
2022-10-20T18:39:17.730Z,100754.34
2022-10-20T18:41:46.339Z,100755.34
2022-10-20T18:44:18.320Z,100759.00
2022-10-20T18:46:47.746Z,100759.84
2022-10-20T18:49:20.523Z,100756.38
2022-10-20T18:51:48.417Z,100756.69
2022-10-20T18:54:17.893Z,100761.13
2022-10-20T18:56:45.176Z,100754.91
2022-10-20T18:59:16.482Z,100753.97
2022-10-20T19:01:44.218Z,100760.81
2022-10-20T19:04:12.795Z,100751.94
2022-10-20T19:06:47.637Z,100749.31
2022-10-20T19:09:21.431Z,100746.66
2022-10-20T19:14:24.999Z,100742.38
2022-10-20T19:16:53.328Z,100738.97
2022-10-20T19:19:20.913Z,100732.88
2022-10-20T19:21:48.594Z,100731.06
2022-10-20T19:24:24.394Z,100726.47
2022-10-20T19:27:24.572Z,100721.28
2022-10-20T19:29:45.078Z,100723.94
2022-10-20T19:32:12.265Z,100727.50
2022-10-20T19:34:41.507Z,100717.81
2022-10-20T19:37:09.639Z,100710.00
2022-10-20T19:39:41.949Z,100705.59
2022-10-20T19:42:11.206Z,100705.91
2022-10-20T19:44:39.592Z,100704.13
2022-10-20T19:47:08.189Z,100700.75
2022-10-20T19:49:35.562Z,100687.81
2022-10-20T19:52:04.879Z,100686.22
2022-10-20T19:54:32.179Z,100672.22
2022-10-20T19:56:59.866Z,100677.50
2022-10-20T19:59:27.267Z,100668.94
2022-10-20T20:01:55.086Z,100666.53
2022-10-20T20:04:22.649Z,100669.38
2022-10-20T20:06:49.871Z,100664.97
2022-10-20T20:09:17.661Z,100666.63
2022-10-20T20:11:45.097Z,100672.09
2022-10-20T20:14:18.828Z,100666.34
2022-10-20T20:16:47.485Z,100664.63
2022-10-20T20:19:17.760Z,100655.91
2022-10-20T20:21:46.097Z,100660.56
2022-10-20T20:24:14.695Z,100665.94
2022-10-20T20:26:43.343Z,100665.16
2022-10-20T20:29:11.045Z,100675.69
2022-10-20T20:31:38.290Z,100668.66
2022-10-20T20:34:05.497Z,100682.66
2022-10-20T20:36:32.792Z,100673.19
2022-10-20T20:39:00.363Z,100666.47
2022-10-20T20:41:30.858Z,100678.97
2022-10-20T20:44:00.997Z,100666.66
2022-10-20T20:46:31.081Z,100657.06
2022-10-20T20:48:58.474Z,100660.75
2022-10-20T20:51:26.976Z,100673.09
2022-10-20T20:53:54.678Z,100672.47
2022-10-20T20:56:23.378Z,100679.38
2022-10-20T20:58:55.203Z,100678.44
2022-10-20T21:01:27.583Z,100676.84
2022-10-20T21:03:59.539Z,100689.19
2022-10-20T21:06:33.752Z,100678.03
2022-10-20T21:09:01.508Z,100677.28
2022-10-20T21:11:29.036Z,100670.34
2022-10-20T21:13:59.349Z,100671.19
2022-10-20T21:16:36.604Z,100671.47
2022-10-20T21:19:09.888Z,100676.94
2022-10-20T21:21:47.121Z,100677.03
2022-10-20T21:24:14.478Z,100673.56
2022-10-20T21:26:41.784Z,100671.16
2022-10-20T21:29:09.521Z,100670.41
2022-10-20T21:31:37.031Z,100674.81
2022-10-20T21:34:05.783Z,100673.13
2022-10-20T21:36:36.386Z,100666.31
2022-10-20T21:39:12.990Z,100678.63
2022-10-20T21:41:40.318Z,100676.94
2022-10-20T21:44:09.254Z,100673.56
2022-10-20T21:46:41.973Z,100672.50
2022-10-20T21:49:15.804Z,100675.88
2022-10-20T21:51:52.307Z,100669.88
2022-10-20T21:54:24.870Z,100671.47
2022-10-20T21:56:53.886Z,100669.66
2022-10-20T21:59:27.998Z,100680.28
2022-10-20T22:02:00.449Z,100686.38
2022-10-20T22:04:30.311Z,100683.03
2022-10-20T22:06:59.333Z,100688.91
2022-10-20T22:09:26.915Z,100691.34
2022-10-20T22:11:56.586Z,100682.63
2022-10-20T22:14:24.050Z,100681.69
2022-10-20T22:16:51.842Z,100677.34
2022-10-20T22:19:23.349Z,100677.56
2022-10-20T22:21:53.417Z,100672.41
2022-10-20T22:24:22.663Z,100667.97
2022-10-20T22:26:52.269Z,100668.72
2022-10-20T22:29:22.599Z,100666.00
2022-10-20T22:31:50.807Z,100661.34
2022-10-20T22:34:18.088Z,100661.25
2022-10-20T22:36:45.357Z,100654.19
2022-10-20T22:41:45.794Z,100650.63
2022-10-20T22:44:13.109Z,100658.41
2022-10-20T22:46:40.338Z,100657.47
2022-10-20T22:49:07.724Z,100651.25
2022-10-20T22:51:34.840Z,100646.66
2022-10-20T22:54:01.994Z,100638.66
2022-10-20T22:56:29.149Z,100642.03
2022-10-20T22:58:56.344Z,100630.66
2022-10-20T23:01:25.008Z,100627.06
2022-10-20T23:03:52.627Z,100625.41
2022-10-20T23:06:25.143Z,100612.34
2022-10-20T23:08:56.614Z,100621.81
2022-10-20T23:11:24.352Z,100621.59
2022-10-20T23:13:52.210Z,100612.75
2022-10-20T23:16:19.825Z,100612.66
2022-10-20T23:18:47.976Z,100611.72
2022-10-20T23:21:15.737Z,100609.59
2022-10-20T23:23:43.998Z,100605.91
2022-10-20T23:26:12.773Z,100604.22
2022-10-20T23:28:40.698Z,100617.38
2022-10-20T23:31:16.613Z,100628.63
2022-10-20T23:33:46.627Z,100618.09
2022-10-20T23:36:15.993Z,100626.00
2022-10-20T23:38:44.043Z,100623.91
2022-10-20T23:41:11.305Z,100621.28
2022-10-20T23:43:38.655Z,100626.44
2022-10-20T23:46:07.239Z,100627.38
2022-10-20T23:48:35.593Z,100631.91
2022-10-20T23:51:02.878Z,100638.22
2022-10-20T23:53:30.576Z,100634.66
2022-10-20T23:55:57.784Z,100619.06
2022-10-20T23:58:25.755Z,100621.81
